sensor_id;sensor_type;location;lat;lon;timestamp;temperature;humidity
22908;DHT22;11620;50.050;8.690;2022-11-20T00:00:33;2.30;99.90
22908;DHT22;11620;50.050;8.690;2022-11-20T00:03:20;2.30;99.90
22908;DHT22;11620;50.050;8.690;2022-11-20T00:06:09;2.30;99.90
22908;DHT22;11620;50.050;8.690;2022-11-20T00:08:57;2.40;99.90
22908;DHT22;11620;50.050;8.690;2022-11-20T00:11:44;2.20;99.90
22908;DHT22;11620;50.050;8.690;2022-11-20T00:14:30;2.20;99.90
22908;DHT22;11620;50.050;8.690;2022-11-20T00:17:16;2.20;99.90
22908;DHT22;11620;50.050;8.690;2022-11-20T00:20:03;2.20;99.90
22908;DHT22;11620;50.050;8.690;2022-11-20T00:22:50;2.30;99.90
22908;DHT22;11620;50.050;8.690;2022-11-20T00:25:37;2.30;99.90
22908;DHT22;11620;50.050;8.690;2022-11-20T00:28:23;2.30;99.90
22908;DHT22;11620;50.050;8.690;2022-11-20T00:31:14;2.30;99.90
22908;DHT22;11620;50.050;8.690;2022-11-20T00:34:00;2.30;99.90
22908;DHT22;11620;50.050;8.690;2022-11-20T00:36:47;2.30;99.90
22908;DHT22;11620;50.050;8.690;2022-11-20T00:39:33;2.30;99.90
22908;DHT22;11620;50.050;8.690;2022-11-20T00:42:20;2.30;99.90
22908;DHT22;11620;50.050;8.690;2022-11-20T00:45:06;2.30;99.90
22908;DHT22;11620;50.050;8.690;2022-11-20T00:47:53;2.30;99.90
22908;DHT22;11620;50.050;8.690;2022-11-20T00:50:41;2.30;99.90
22908;DHT22;11620;50.050;8.690;2022-11-20T00:53:27;2.40;99.90
22908;DHT22;11620;50.050;8.690;2022-11-20T00:56:16;2.30;99.90
22908;DHT22;11620;50.050;8.690;2022-11-20T00:59:02;2.40;99.90
22908;DHT22;11620;50.050;8.690;2022-11-20T01:01:48;2.30;99.90
22908;DHT22;11620;50.050;8.690;2022-11-20T01:04:35;2.20;99.90
22908;DHT22;11620;50.050;8.690;2022-11-20T01:07:21;2.30;99.90
22908;DHT22;11620;50.050;8.690;2022-11-20T01:10:08;2.30;99.90
22908;DHT22;11620;50.050;8.690;2022-11-20T01:12:54;2.30;99.90
22908;DHT22;11620;50.050;8.690;2022-11-20T01:16:15;2.20;99.90
22908;DHT22;11620;50.050;8.690;2022-11-20T01:19:05;2.20;99.90
22908;DHT22;11620;50.050;8.690;2022-11-20T01:21:53;2.20;99.90
22908;DHT22;11620;50.050;8.690;2022-11-20T01:24:39;2.10;99.90
22908;DHT22;11620;50.050;8.690;2022-11-20T01:27:26;2.00;99.90
22908;DHT22;11620;50.050;8.690;2022-11-20T01:30:12;2.10;99.90
22908;DHT22;11620;50.050;8.690;2022-11-20T01:32:59;2.10;99.90
22908;DHT22;11620;50.050;8.690;2022-11-20T01:35:45;2.10;99.90
22908;DHT22;11620;50.050;8.690;2022-11-20T01:38:31;2.10;99.90
22908;DHT22;11620;50.050;8.690;2022-11-20T01:41:18;2.10;99.90
22908;DHT22;11620;50.050;8.690;2022-11-20T01:50:27;2.10;99.90
22908;DHT22;11620;50.050;8.690;2022-11-20T01:53:18;2.10;99.90
22908;DHT22;11620;50.050;8.690;2022-11-20T01:56:09;2.00;99.90
22908;DHT22;11620;50.050;8.690;2022-11-20T01:58:58;2.00;99.90
22908;DHT22;11620;50.050;8.690;2022-11-20T02:01:47;2.00;99.90
22908;DHT22;11620;50.050;8.690;2022-11-20T02:04:33;2.10;99.90
22908;DHT22;11620;50.050;8.690;2022-11-20T02:07:20;2.10;99.90
22908;DHT22;11620;50.050;8.690;2022-11-20T02:10:07;2.10;99.90
22908;DHT22;11620;50.050;8.690;2022-11-20T02:12:53;2.10;99.90
22908;DHT22;11620;50.050;8.690;2022-11-20T02:15:59;2.10;99.90
22908;DHT22;11620;50.050;8.690;2022-11-20T02:18:46;2.10;99.90
22908;DHT22;11620;50.050;8.690;2022-11-20T02:21:46;2.10;99.90
22908;DHT22;11620;50.050;8.690;2022-11-20T02:24:34;2.10;99.90
22908;DHT22;11620;50.050;8.690;2022-11-20T02:27:20;2.10;99.90
22908;DHT22;11620;50.050;8.690;2022-11-20T02:30:09;2.10;99.90
22908;DHT22;11620;50.050;8.690;2022-11-20T02:32:58;2.10;99.90
22908;DHT22;11620;50.050;8.690;2022-11-20T02:35:46;2.10;99.90
22908;DHT22;11620;50.050;8.690;2022-11-20T02:38:32;2.10;99.90
22908;DHT22;11620;50.050;8.690;2022-11-20T02:41:19;2.10;99.90
22908;DHT22;11620;50.050;8.690;2022-11-20T02:44:06;2.10;99.90
22908;DHT22;11620;50.050;8.690;2022-11-20T02:46:52;2.00;99.90
22908;DHT22;11620;50.050;8.690;2022-11-20T02:49:38;2.00;99.90
22908;DHT22;11620;50.050;8.690;2022-11-20T02:52:25;2.00;99.90
22908;DHT22;11620;50.050;8.690;2022-11-20T02:55:11;2.00;99.90
22908;DHT22;11620;50.050;8.690;2022-11-20T02:57:58;2.00;99.90
22908;DHT22;11620;50.050;8.690;2022-11-20T03:00:44;2.00;99.90
22908;DHT22;11620;50.050;8.690;2022-11-20T03:03:30;2.00;99.90
22908;DHT22;11620;50.050;8.690;2022-11-20T03:06:17;2.00;99.90
22908;DHT22;11620;50.050;8.690;2022-11-20T03:09:03;2.00;99.90
22908;DHT22;11620;50.050;8.690;2022-11-20T03:11:50;2.00;99.90
22908;DHT22;11620;50.050;8.690;2022-11-20T03:14:36;2.00;99.90
22908;DHT22;11620;50.050;8.690;2022-11-20T03:17:22;2.00;99.90
22908;DHT22;11620;50.050;8.690;2022-11-20T03:20:09;2.00;99.90
22908;DHT22;11620;50.050;8.690;2022-11-20T03:22:55;2.00;99.90
22908;DHT22;11620;50.050;8.690;2022-11-20T03:25:41;2.00;99.90
22908;DHT22;11620;50.050;8.690;2022-11-20T03:28:28;1.90;99.90
22908;DHT22;11620;50.050;8.690;2022-11-20T03:31:15;2.00;99.90
22908;DHT22;11620;50.050;8.690;2022-11-20T03:34:03;2.00;99.90
22908;DHT22;11620;50.050;8.690;2022-11-20T03:36:49;2.00;99.90
22908;DHT22;11620;50.050;8.690;2022-11-20T03:39:36;2.10;99.90
22908;DHT22;11620;50.050;8.690;2022-11-20T03:42:22;2.10;99.90
22908;DHT22;11620;50.050;8.690;2022-11-20T03:45:27;2.10;99.90
22908;DHT22;11620;50.050;8.690;2022-11-20T03:48:13;2.10;99.90
22908;DHT22;11620;50.050;8.690;2022-11-20T03:51:15;2.10;99.90
22908;DHT22;11620;50.050;8.690;2022-11-20T03:54:08;2.10;99.90
22908;DHT22;11620;50.050;8.690;2022-11-20T03:56:54;2.10;99.90
22908;DHT22;11620;50.050;8.690;2022-11-20T03:59:41;2.10;99.90
22908;DHT22;11620;50.050;8.690;2022-11-20T04:02:27;2.20;99.90
22908;DHT22;11620;50.050;8.690;2022-11-20T04:05:13;2.10;99.90
22908;DHT22;11620;50.050;8.690;2022-11-20T04:08:00;2.10;99.90
22908;DHT22;11620;50.050;8.690;2022-11-20T04:10:46;2.00;99.90
22908;DHT22;11620;50.050;8.690;2022-11-20T04:13:33;2.00;99.90
22908;DHT22;11620;50.050;8.690;2022-11-20T04:16:19;2.00;99.90
22908;DHT22;11620;50.050;8.690;2022-11-20T04:19:11;2.00;99.90
22908;DHT22;11620;50.050;8.690;2022-11-20T04:21:57;2.00;99.90
22908;DHT22;11620;50.050;8.690;2022-11-20T04:24:44;2.00;99.90
22908;DHT22;11620;50.050;8.690;2022-11-20T04:27:30;2.00;99.90
22908;DHT22;11620;50.050;8.690;2022-11-20T04:30:17;2.10;99.90
22908;DHT22;11620;50.050;8.690;2022-11-20T04:33:03;2.10;99.90
22908;DHT22;11620;50.050;8.690;2022-11-20T04:35:49;2.10;99.90
22908;DHT22;11620;50.050;8.690;2022-11-20T04:38:36;2.00;99.90
22908;DHT22;11620;50.050;8.690;2022-11-20T04:41:25;2.10;99.90
22908;DHT22;11620;50.050;8.690;2022-11-20T04:44:12;2.10;99.90
22908;DHT22;11620;50.050;8.690;2022-11-20T04:46:58;2.00;99.90
22908;DHT22;11620;50.050;8.690;2022-11-20T04:49:44;1.90;99.90
22908;DHT22;11620;50.050;8.690;2022-11-20T04:52:31;2.00;99.90
22908;DHT22;11620;50.050;8.690;2022-11-20T04:55:17;1.90;99.90
22908;DHT22;11620;50.050;8.690;2022-11-20T04:58:03;1.90;99.90
22908;DHT22;11620;50.050;8.690;2022-11-20T05:00:50;1.90;99.90
22908;DHT22;11620;50.050;8.690;2022-11-20T05:03:38;1.90;99.90
22908;DHT22;11620;50.050;8.690;2022-11-20T05:06:25;1.90;99.90
22908;DHT22;11620;50.050;8.690;2022-11-20T05:09:12;2.00;99.90
22908;DHT22;11620;50.050;8.690;2022-11-20T05:11:58;2.00;99.90
22908;DHT22;11620;50.050;8.690;2022-11-20T05:14:45;2.00;99.90
22908;DHT22;11620;50.050;8.690;2022-11-20T05:17:31;2.00;99.90
22908;DHT22;11620;50.050;8.690;2022-11-20T05:20:17;2.00;99.90
22908;DHT22;11620;50.050;8.690;2022-11-20T05:23:04;2.00;99.90
22908;DHT22;11620;50.050;8.690;2022-11-20T05:25:55;2.10;99.90
22908;DHT22;11620;50.050;8.690;2022-11-20T05:28:41;2.10;99.90
22908;DHT22;11620;50.050;8.690;2022-11-20T05:31:27;2.10;99.90
22908;DHT22;11620;50.050;8.690;2022-11-20T05:34:14;2.10;99.90
22908;DHT22;11620;50.050;8.690;2022-11-20T05:37:00;2.10;99.90
22908;DHT22;11620;50.050;8.690;2022-11-20T05:39:47;2.20;99.90
22908;DHT22;11620;50.050;8.690;2022-11-20T05:42:33;2.20;99.90
22908;DHT22;11620;50.050;8.690;2022-11-20T05:45:19;2.20;99.90
22908;DHT22;11620;50.050;8.690;2022-11-20T05:48:06;2.20;99.90
22908;DHT22;11620;50.050;8.690;2022-11-20T05:50:52;2.20;99.90
22908;DHT22;11620;50.050;8.690;2022-11-20T05:53:38;2.20;99.90
22908;DHT22;11620;50.050;8.690;2022-11-20T05:56:25;2.10;99.90
22908;DHT22;11620;50.050;8.690;2022-11-20T05:59:11;2.20;99.90
22908;DHT22;11620;50.050;8.690;2022-11-20T06:01:57;2.20;99.90
22908;DHT22;11620;50.050;8.690;2022-11-20T06:04:43;2.20;99.90
22908;DHT22;11620;50.050;8.690;2022-11-20T06:07:30;2.20;99.90
22908;DHT22;11620;50.050;8.690;2022-11-20T06:10:16;2.20;99.90
22908;DHT22;11620;50.050;8.690;2022-11-20T06:13:02;2.20;99.90
22908;DHT22;11620;50.050;8.690;2022-11-20T06:15:53;2.20;99.90
22908;DHT22;11620;50.050;8.690;2022-11-20T06:18:39;2.20;99.90
22908;DHT22;11620;50.050;8.690;2022-11-20T06:21:26;2.20;99.90
22908;DHT22;11620;50.050;8.690;2022-11-20T06:24:12;2.20;99.90
22908;DHT22;11620;50.050;8.690;2022-11-20T06:26:58;2.20;99.90
22908;DHT22;11620;50.050;8.690;2022-11-20T06:29:45;2.30;99.90
22908;DHT22;11620;50.050;8.690;2022-11-20T06:32:31;2.30;99.90
22908;DHT22;11620;50.050;8.690;2022-11-20T06:35:18;2.20;99.90
22908;DHT22;11620;50.050;8.690;2022-11-20T06:38:04;2.20;99.90
22908;DHT22;11620;50.050;8.690;2022-11-20T06:40:51;2.10;99.90
22908;DHT22;11620;50.050;8.690;2022-11-20T06:43:37;2.10;99.90
22908;DHT22;11620;50.050;8.690;2022-11-20T06:46:24;2.20;99.90
22908;DHT22;11620;50.050;8.690;2022-11-20T06:49:10;2.20;99.90
22908;DHT22;11620;50.050;8.690;2022-11-20T06:51:56;2.20;99.90
22908;DHT22;11620;50.050;8.690;2022-11-20T06:54:43;2.30;99.90
22908;DHT22;11620;50.050;8.690;2022-11-20T06:57:29;2.20;99.90
22908;DHT22;11620;50.050;8.690;2022-11-20T07:00:15;2.10;99.90
22908;DHT22;11620;50.050;8.690;2022-11-20T07:03:06;2.10;99.90
22908;DHT22;11620;50.050;8.690;2022-11-20T07:05:56;2.10;99.90
22908;DHT22;11620;50.050;8.690;2022-11-20T07:08:43;2.10;99.90
22908;DHT22;11620;50.050;8.690;2022-11-20T07:11:29;2.20;99.90
22908;DHT22;11620;50.050;8.690;2022-11-20T07:14:15;2.20;99.90
22908;DHT22;11620;50.050;8.690;2022-11-20T07:17:02;2.20;99.90
22908;DHT22;11620;50.050;8.690;2022-11-20T07:19:48;2.20;99.90
22908;DHT22;11620;50.050;8.690;2022-11-20T07:22:34;2.10;99.90
22908;DHT22;11620;50.050;8.690;2022-11-20T07:25:22;2.10;99.90
22908;DHT22;11620;50.050;8.690;2022-11-20T07:28:08;2.10;99.90
22908;DHT22;11620;50.050;8.690;2022-11-20T07:30:56;2.20;99.90
22908;DHT22;11620;50.050;8.690;2022-11-20T07:33:42;2.20;99.90
22908;DHT22;11620;50.050;8.690;2022-11-20T07:36:29;2.20;99.90
22908;DHT22;11620;50.050;8.690;2022-11-20T07:39:15;2.10;99.90
22908;DHT22;11620;50.050;8.690;2022-11-20T07:42:01;2.00;99.90
22908;DHT22;11620;50.050;8.690;2022-11-20T07:44:48;2.00;99.90
22908;DHT22;11620;50.050;8.690;2022-11-20T07:47:37;1.90;99.90
22908;DHT22;11620;50.050;8.690;2022-11-20T07:50:24;1.90;99.90
22908;DHT22;11620;50.050;8.690;2022-11-20T07:53:10;1.60;99.90
22908;DHT22;11620;50.050;8.690;2022-11-20T07:56:00;1.60;99.90
22908;DHT22;11620;50.050;8.690;2022-11-20T07:58:46;1.70;99.90
22908;DHT22;11620;50.050;8.690;2022-11-20T08:01:33;1.70;99.90
22908;DHT22;11620;50.050;8.690;2022-11-20T08:04:19;1.70;99.90
22908;DHT22;11620;50.050;8.690;2022-11-20T08:07:05;1.80;99.90
22908;DHT22;11620;50.050;8.690;2022-11-20T08:09:52;1.80;99.90
22908;DHT22;11620;50.050;8.690;2022-11-20T08:12:51;1.70;99.90
22908;DHT22;11620;50.050;8.690;2022-11-20T08:15:56;1.80;99.90
22908;DHT22;11620;50.050;8.690;2022-11-20T08:18:43;1.70;99.90
22908;DHT22;11620;50.050;8.690;2022-11-20T08:21:30;1.70;99.90
22908;DHT22;11620;50.050;8.690;2022-11-20T08:24:16;1.50;99.90
22908;DHT22;11620;50.050;8.690;2022-11-20T08:27:02;1.70;99.90
22908;DHT22;11620;50.050;8.690;2022-11-20T08:29:49;1.70;99.90
22908;DHT22;11620;50.050;8.690;2022-11-20T08:32:35;1.90;99.90
22908;DHT22;11620;50.050;8.690;2022-11-20T08:35:23;2.00;99.90
22908;DHT22;11620;50.050;8.690;2022-11-20T08:38:09;2.10;99.90
22908;DHT22;11620;50.050;8.690;2022-11-20T08:41:01;2.00;99.90
22908;DHT22;11620;50.050;8.690;2022-11-20T08:44:07;2.00;99.90
22908;DHT22;11620;50.050;8.690;2022-11-20T08:46:54;2.10;99.90
22908;DHT22;11620;50.050;8.690;2022-11-20T08:49:40;2.10;99.90
22908;DHT22;11620;50.050;8.690;2022-11-20T08:52:26;2.20;99.90
22908;DHT22;11620;50.050;8.690;2022-11-20T08:55:13;2.40;99.90
22908;DHT22;11620;50.050;8.690;2022-11-20T08:58:03;2.50;99.90
22908;DHT22;11620;50.050;8.690;2022-11-20T09:00:50;2.60;99.90
22908;DHT22;11620;50.050;8.690;2022-11-20T09:03:36;2.60;99.90
22908;DHT22;11620;50.050;8.690;2022-11-20T09:06:23;2.70;99.90
22908;DHT22;11620;50.050;8.690;2022-11-20T09:09:09;2.70;99.90
22908;DHT22;11620;50.050;8.690;2022-11-20T09:11:55;2.80;99.90
22908;DHT22;11620;50.050;8.690;2022-11-20T09:14:42;2.90;99.90
22908;DHT22;11620;50.050;8.690;2022-11-20T09:17:28;2.90;99.90
22908;DHT22;11620;50.050;8.690;2022-11-20T09:20:14;3.00;99.90
22908;DHT22;11620;50.050;8.690;2022-11-20T09:23:02;3.00;99.90
22908;DHT22;11620;50.050;8.690;2022-11-20T09:25:48;3.10;99.90
22908;DHT22;11620;50.050;8.690;2022-11-20T09:28:35;3.10;99.90
22908;DHT22;11620;50.050;8.690;2022-11-20T09:31:25;3.10;99.90
22908;DHT22;11620;50.050;8.690;2022-11-20T09:34:12;3.20;99.90
22908;DHT22;11620;50.050;8.690;2022-11-20T09:36:58;3.10;99.90
22908;DHT22;11620;50.050;8.690;2022-11-20T09:39:44;3.20;99.90
22908;DHT22;11620;50.050;8.690;2022-11-20T09:55:10;3.30;99.90
22908;DHT22;11620;50.050;8.690;2022-11-20T09:57:58;3.40;99.90
22908;DHT22;11620;50.050;8.690;2022-11-20T10:00:46;3.40;99.90
22908;DHT22;11620;50.050;8.690;2022-11-20T10:03:41;3.50;99.90
22908;DHT22;11620;50.050;8.690;2022-11-20T10:06:34;3.30;99.90
22908;DHT22;11620;50.050;8.690;2022-11-20T10:09:35;3.00;99.90
22908;DHT22;11620;50.050;8.690;2022-11-20T10:12:40;3.10;99.90
22908;DHT22;11620;50.050;8.690;2022-11-20T10:22:06;3.30;99.90
22908;DHT22;11620;50.050;8.690;2022-11-20T10:25:06;3.30;99.90
22908;DHT22;11620;50.050;8.690;2022-11-20T10:28:20;3.10;99.90
22908;DHT22;11620;50.050;8.690;2022-11-20T10:31:11;3.20;99.90
22908;DHT22;11620;50.050;8.690;2022-11-20T10:34:03;3.10;99.90
22908;DHT22;11620;50.050;8.690;2022-11-20T10:37:00;3.00;99.90
22908;DHT22;11620;50.050;8.690;2022-11-20T10:43:09;3.00;99.90
22908;DHT22;11620;50.050;8.690;2022-11-20T10:46:12;2.90;99.90
22908;DHT22;11620;50.050;8.690;2022-11-20T10:49:00;3.10;99.90
22908;DHT22;11620;50.050;8.690;2022-11-20T10:58:07;3.20;99.90
22908;DHT22;11620;50.050;8.690;2022-11-20T11:01:25;3.20;99.90
22908;DHT22;11620;50.050;8.690;2022-11-20T11:13:30;3.30;99.90
22908;DHT22;11620;50.050;8.690;2022-11-20T11:16:22;3.20;99.90
22908;DHT22;11620;50.050;8.690;2022-11-20T11:19:13;3.00;99.90
22908;DHT22;11620;50.050;8.690;2022-11-20T11:21:59;3.00;99.90
22908;DHT22;11620;50.050;8.690;2022-11-20T11:24:53;2.90;99.90
22908;DHT22;11620;50.050;8.690;2022-11-20T11:27:49;3.00;99.90
22908;DHT22;11620;50.050;8.690;2022-11-20T11:30:43;3.10;99.90
22908;DHT22;11620;50.050;8.690;2022-11-20T11:33:31;3.30;99.90
22908;DHT22;11620;50.050;8.690;2022-11-20T11:36:23;3.40;99.90
22908;DHT22;11620;50.050;8.690;2022-11-20T11:39:14;3.20;99.90
22908;DHT22;11620;50.050;8.690;2022-11-20T11:42:01;3.20;99.90
22908;DHT22;11620;50.050;8.690;2022-11-20T11:44:48;3.30;99.90
22908;DHT22;11620;50.050;8.690;2022-11-20T11:48:03;3.50;99.90
22908;DHT22;11620;50.050;8.690;2022-11-20T11:50:51;3.40;99.90
22908;DHT22;11620;50.050;8.690;2022-11-20T11:53:41;3.50;99.90
22908;DHT22;11620;50.050;8.690;2022-11-20T11:56:28;3.40;99.90
22908;DHT22;11620;50.050;8.690;2022-11-20T11:59:25;3.40;99.90
22908;DHT22;11620;50.050;8.690;2022-11-20T12:11:11;3.20;99.90
22908;DHT22;11620;50.050;8.690;2022-11-20T12:14:14;3.40;99.90
22908;DHT22;11620;50.050;8.690;2022-11-20T12:17:03;3.60;99.90
22908;DHT22;11620;50.050;8.690;2022-11-20T12:19:49;3.50;99.90
22908;DHT22;11620;50.050;8.690;2022-11-20T12:25:54;3.30;99.90
22908;DHT22;11620;50.050;8.690;2022-11-20T12:28:56;3.00;99.90
22908;DHT22;11620;50.050;8.690;2022-11-20T12:35:17;3.00;99.90
22908;DHT22;11620;50.050;8.690;2022-11-20T12:41:05;3.30;99.90
22908;DHT22;11620;50.050;8.690;2022-11-20T12:54:22;3.30;99.90
22908;DHT22;11620;50.050;8.690;2022-11-20T12:57:36;3.40;99.90
22908;DHT22;11620;50.050;8.690;2022-11-20T13:00:27;3.20;99.90
22908;DHT22;11620;50.050;8.690;2022-11-20T13:03:36;3.30;99.90
22908;DHT22;11620;50.050;8.690;2022-11-20T13:06:24;3.30;99.90
22908;DHT22;11620;50.050;8.690;2022-11-20T13:09:15;3.50;99.90
22908;DHT22;11620;50.050;8.690;2022-11-20T13:18:00;3.70;99.90
22908;DHT22;11620;50.050;8.690;2022-11-20T13:20:47;3.60;99.90
22908;DHT22;11620;50.050;8.690;2022-11-20T13:23:35;3.60;99.90
22908;DHT22;11620;50.050;8.690;2022-11-20T13:26:23;3.80;99.90
22908;DHT22;11620;50.050;8.690;2022-11-20T13:29:11;3.90;99.90
22908;DHT22;11620;50.050;8.690;2022-11-20T13:32:06;3.90;99.90
22908;DHT22;11620;50.050;8.690;2022-11-20T13:34:58;3.80;99.90
22908;DHT22;11620;50.050;8.690;2022-11-20T13:37:46;3.80;99.90
22908;DHT22;11620;50.050;8.690;2022-11-20T13:40:34;3.90;99.90
22908;DHT22;11620;50.050;8.690;2022-11-20T13:46:12;3.70;99.90
22908;DHT22;11620;50.050;8.690;2022-11-20T13:48:59;3.70;99.90
22908;DHT22;11620;50.050;8.690;2022-11-20T13:55:37;3.60;99.90
22908;DHT22;11620;50.050;8.690;2022-11-20T13:58:35;3.70;99.90
22908;DHT22;11620;50.050;8.690;2022-11-20T14:01:29;3.70;99.90
22908;DHT22;11620;50.050;8.690;2022-11-20T14:04:27;3.70;99.90
22908;DHT22;11620;50.050;8.690;2022-11-20T14:07:16;3.60;99.90
22908;DHT22;11620;50.050;8.690;2022-11-20T14:10:04;3.70;99.90
22908;DHT22;11620;50.050;8.690;2022-11-20T14:12:51;3.80;99.90
22908;DHT22;11620;50.050;8.690;2022-11-20T14:15:37;3.90;99.90
22908;DHT22;11620;50.050;8.690;2022-11-20T14:18:26;4.00;99.90
22908;DHT22;11620;50.050;8.690;2022-11-20T14:24:11;3.80;99.90
22908;DHT22;11620;50.050;8.690;2022-11-20T15:33:45;4.80;99.90
22908;DHT22;11620;50.050;8.690;2022-11-20T15:36:32;4.70;99.90
22908;DHT22;11620;50.050;8.690;2022-11-20T15:39:18;4.60;99.90
22908;DHT22;11620;50.050;8.690;2022-11-20T15:42:04;4.50;99.90
22908;DHT22;11620;50.050;8.690;2022-11-20T15:44:50;4.50;99.90
22908;DHT22;11620;50.050;8.690;2022-11-20T15:47:37;4.40;99.90
22908;DHT22;11620;50.050;8.690;2022-11-20T15:50:27;4.50;99.90
22908;DHT22;11620;50.050;8.690;2022-11-20T15:53:15;4.40;99.90
22908;DHT22;11620;50.050;8.690;2022-11-20T15:56:02;4.40;99.90
22908;DHT22;11620;50.050;8.690;2022-11-20T15:58:48;4.50;99.90
22908;DHT22;11620;50.050;8.690;2022-11-20T16:01:35;4.50;99.90
22908;DHT22;11620;50.050;8.690;2022-11-20T16:04:21;4.50;99.90
22908;DHT22;11620;50.050;8.690;2022-11-20T16:07:07;4.50;99.90
22908;DHT22;11620;50.050;8.690;2022-11-20T16:09:54;4.50;99.90
22908;DHT22;11620;50.050;8.690;2022-11-20T16:12:42;4.50;99.90
22908;DHT22;11620;50.050;8.690;2022-11-20T16:15:52;4.50;99.90
22908;DHT22;11620;50.050;8.690;2022-11-20T16:18:41;4.50;99.90
22908;DHT22;11620;50.050;8.690;2022-11-20T16:21:28;4.60;99.90
22908;DHT22;11620;50.050;8.690;2022-11-20T16:24:17;4.50;99.90
22908;DHT22;11620;50.050;8.690;2022-11-20T16:27:03;4.50;99.90
22908;DHT22;11620;50.050;8.690;2022-11-20T16:29:49;4.50;99.90
22908;DHT22;11620;50.050;8.690;2022-11-20T16:32:35;4.50;99.90
22908;DHT22;11620;50.050;8.690;2022-11-20T16:35:22;4.40;99.90
22908;DHT22;11620;50.050;8.690;2022-11-20T16:38:09;4.40;99.90
22908;DHT22;11620;50.050;8.690;2022-11-20T16:41:00;4.40;99.90
22908;DHT22;11620;50.050;8.690;2022-11-20T16:43:52;4.40;99.90
22908;DHT22;11620;50.050;8.690;2022-11-20T16:46:39;4.40;99.90
22908;DHT22;11620;50.050;8.690;2022-11-20T16:49:25;4.40;99.90
22908;DHT22;11620;50.050;8.690;2022-11-20T16:52:12;4.40;99.90
22908;DHT22;11620;50.050;8.690;2022-11-20T16:54:58;4.40;99.90
22908;DHT22;11620;50.050;8.690;2022-11-20T16:57:44;4.40;99.90
22908;DHT22;11620;50.050;8.690;2022-11-20T17:00:31;4.30;99.90
22908;DHT22;11620;50.050;8.690;2022-11-20T17:03:17;4.30;99.90
22908;DHT22;11620;50.050;8.690;2022-11-20T17:06:14;4.10;99.90
22908;DHT22;11620;50.050;8.690;2022-11-20T17:09:02;4.20;99.90
22908;DHT22;11620;50.050;8.690;2022-11-20T17:11:48;4.30;99.90
22908;DHT22;11620;50.050;8.690;2022-11-20T17:14:35;4.30;99.90
22908;DHT22;11620;50.050;8.690;2022-11-20T17:17:21;4.40;99.90
22908;DHT22;11620;50.050;8.690;2022-11-20T17:20:08;4.40;99.90
22908;DHT22;11620;50.050;8.690;2022-11-20T17:22:55;4.40;99.90
22908;DHT22;11620;50.050;8.690;2022-11-20T17:25:41;4.30;99.90
22908;DHT22;11620;50.050;8.690;2022-11-20T17:28:28;4.10;99.90
22908;DHT22;11620;50.050;8.690;2022-11-20T17:31:16;4.10;99.90
22908;DHT22;11620;50.050;8.690;2022-11-20T17:34:03;4.20;99.90
22908;DHT22;11620;50.050;8.690;2022-11-20T17:36:50;4.30;99.90
22908;DHT22;11620;50.050;8.690;2022-11-20T17:39:36;4.20;99.90
22908;DHT22;11620;50.050;8.690;2022-11-20T17:42:24;4.30;99.90
22908;DHT22;11620;50.050;8.690;2022-11-20T17:45:14;4.40;99.90
22908;DHT22;11620;50.050;8.690;2022-11-20T17:48:01;4.50;99.90
22908;DHT22;11620;50.050;8.690;2022-11-20T17:50:47;4.40;99.90
22908;DHT22;11620;50.050;8.690;2022-11-20T17:53:35;4.40;99.90
22908;DHT22;11620;50.050;8.690;2022-11-20T17:56:22;4.30;99.90
22908;DHT22;11620;50.050;8.690;2022-11-20T17:59:27;4.20;99.90
22908;DHT22;11620;50.050;8.690;2022-11-20T18:02:13;4.20;99.90
22908;DHT22;11620;50.050;8.690;2022-11-20T18:05:00;4.20;99.90
22908;DHT22;11620;50.050;8.690;2022-11-20T18:07:46;4.00;99.90
22908;DHT22;11620;50.050;8.690;2022-11-20T18:14:16;3.90;99.90
22908;DHT22;11620;50.050;8.690;2022-11-20T18:17:14;4.00;99.90
22908;DHT22;11620;50.050;8.690;2022-11-20T18:20:00;4.00;99.90
22908;DHT22;11620;50.050;8.690;2022-11-20T18:22:47;3.90;99.90
22908;DHT22;11620;50.050;8.690;2022-11-20T18:25:33;3.80;99.90
22908;DHT22;11620;50.050;8.690;2022-11-20T18:28:19;3.80;99.90
22908;DHT22;11620;50.050;8.690;2022-11-20T18:31:07;3.90;99.90
22908;DHT22;11620;50.050;8.690;2022-11-20T18:33:54;3.80;99.90
22908;DHT22;11620;50.050;8.690;2022-11-20T18:36:41;3.90;99.90
22908;DHT22;11620;50.050;8.690;2022-11-20T18:39:28;3.90;99.90
22908;DHT22;11620;50.050;8.690;2022-11-20T18:42:15;3.90;99.90
22908;DHT22;11620;50.050;8.690;2022-11-20T18:45:20;3.90;99.90
22908;DHT22;11620;50.050;8.690;2022-11-20T18:48:06;4.00;99.90
22908;DHT22;11620;50.050;8.690;2022-11-20T18:50:53;4.10;99.90
22908;DHT22;11620;50.050;8.690;2022-11-20T18:53:39;4.00;99.90
22908;DHT22;11620;50.050;8.690;2022-11-20T18:56:25;4.10;99.90
22908;DHT22;11620;50.050;8.690;2022-11-20T18:59:12;4.10;99.90
22908;DHT22;11620;50.050;8.690;2022-11-20T19:01:59;4.00;99.90
22908;DHT22;11620;50.050;8.690;2022-11-20T19:04:46;4.00;99.90
22908;DHT22;11620;50.050;8.690;2022-11-20T19:07:32;3.90;99.90
22908;DHT22;11620;50.050;8.690;2022-11-20T19:10:19;4.00;99.90
22908;DHT22;11620;50.050;8.690;2022-11-20T19:13:05;4.10;99.90
22908;DHT22;11620;50.050;8.690;2022-11-20T19:15:51;4.20;99.90
22908;DHT22;11620;50.050;8.690;2022-11-20T19:18:38;4.20;99.90
22908;DHT22;11620;50.050;8.690;2022-11-20T19:21:24;3.90;99.90
22908;DHT22;11620;50.050;8.690;2022-11-20T19:24:10;4.00;99.90
22908;DHT22;11620;50.050;8.690;2022-11-20T19:26:57;3.90;99.90
22908;DHT22;11620;50.050;8.690;2022-11-20T19:29:43;4.00;99.90
22908;DHT22;11620;50.050;8.690;2022-11-20T19:32:30;4.10;99.90
22908;DHT22;11620;50.050;8.690;2022-11-20T19:35:17;3.90;99.90
22908;DHT22;11620;50.050;8.690;2022-11-20T19:38:03;4.00;99.90
22908;DHT22;11620;50.050;8.690;2022-11-20T19:40:51;4.00;99.90
22908;DHT22;11620;50.050;8.690;2022-11-20T19:43:37;4.20;99.90
22908;DHT22;11620;50.050;8.690;2022-11-20T19:46:24;4.10;99.90
22908;DHT22;11620;50.050;8.690;2022-11-20T19:49:12;4.20;99.90
22908;DHT22;11620;50.050;8.690;2022-11-20T19:51:58;4.20;99.90
22908;DHT22;11620;50.050;8.690;2022-11-20T19:54:45;4.10;99.90
22908;DHT22;11620;50.050;8.690;2022-11-20T19:57:31;4.20;99.90
22908;DHT22;11620;50.050;8.690;2022-11-20T20:00:18;4.00;99.90
22908;DHT22;11620;50.050;8.690;2022-11-20T20:03:04;3.90;99.90
22908;DHT22;11620;50.050;8.690;2022-11-20T20:05:50;3.80;99.90
22908;DHT22;11620;50.050;8.690;2022-11-20T20:08:37;3.90;99.90
22908;DHT22;11620;50.050;8.690;2022-11-20T20:11:25;3.90;99.90
22908;DHT22;11620;50.050;8.690;2022-11-20T20:14:14;4.10;99.90
22908;DHT22;11620;50.050;8.690;2022-11-20T20:17:00;4.10;99.90
22908;DHT22;11620;50.050;8.690;2022-11-20T20:19:46;4.10;99.90
22908;DHT22;11620;50.050;8.690;2022-11-20T20:22:33;4.00;99.90
22908;DHT22;11620;50.050;8.690;2022-11-20T20:25:19;4.00;99.90
22908;DHT22;11620;50.050;8.690;2022-11-20T20:28:06;3.90;99.90
22908;DHT22;11620;50.050;8.690;2022-11-20T20:30:52;3.90;99.90
22908;DHT22;11620;50.050;8.690;2022-11-20T20:33:39;3.90;99.90
22908;DHT22;11620;50.050;8.690;2022-11-20T20:36:26;3.80;99.90
22908;DHT22;11620;50.050;8.690;2022-11-20T20:39:12;3.80;99.90